createdAt,value
2017-11-20T00:03:24.039Z,65.40
2017-11-20T00:08:26.673Z,65.50
2017-11-20T00:13:29.330Z,65.60
2017-11-20T00:18:31.910Z,65.60
2017-11-20T00:23:34.472Z,66.40
2017-11-20T00:28:37.122Z,65.70
2017-11-20T00:33:39.703Z,65.70
2017-11-20T00:38:42.288Z,65.70
2017-11-20T00:48:56.504Z,65.80
2017-11-20T00:53:59.147Z,65.80
2017-11-20T00:59:02.121Z,65.80
2017-11-20T01:04:04.745Z,65.80
2017-11-20T01:09:07.329Z,65.90
2017-11-20T01:14:09.913Z,65.90
2017-11-20T01:19:12.485Z,65.80
2017-11-20T01:24:15.055Z,65.80
2017-11-20T01:29:17.665Z,65.80
2017-11-20T01:34:20.316Z,66.00
2017-11-20T01:39:23.716Z,66.00
2017-11-20T01:44:26.309Z,66.00
2017-11-20T01:49:28.905Z,66.10
2017-11-20T01:54:32.260Z,66.10
2017-11-20T01:59:34.846Z,66.10
2017-11-20T02:04:37.549Z,66.10
2017-11-20T02:09:40.344Z,66.20
2017-11-20T02:14:42.908Z,66.20
2017-11-20T02:19:45.531Z,66.00
2017-11-20T02:24:48.099Z,65.90
2017-11-20T02:29:50.675Z,65.80
2017-11-20T02:34:53.258Z,65.90
2017-11-20T02:39:55.833Z,66.00
2017-11-20T02:44:58.401Z,66.00
2017-11-20T02:50:01.007Z,66.00
2017-11-20T02:55:03.623Z,66.20
2017-11-20T03:00:06.288Z,66.30
2017-11-20T03:05:08.944Z,66.40
2017-11-20T03:10:11.578Z,66.40
2017-11-20T03:15:14.581Z,66.40
2017-11-20T03:20:18.057Z,66.50
2017-11-20T03:25:21.425Z,66.60
2017-11-20T03:30:24.086Z,66.40
2017-11-20T03:35:26.719Z,66.50
2017-11-20T03:40:29.345Z,66.60
2017-11-20T03:45:31.940Z,66.50
2017-11-20T03:50:34.511Z,66.40
2017-11-20T03:55:37.078Z,66.50
2017-11-20T04:00:39.775Z,66.50
2017-11-20T04:05:42.419Z,66.40
2017-11-20T04:10:45.063Z,66.50
2017-11-20T04:15:47.653Z,66.50
2017-11-20T04:20:50.254Z,66.30
2017-11-20T04:25:53.614Z,66.30
2017-11-20T04:30:56.178Z,66.30
2017-11-20T04:35:58.949Z,66.20
2017-11-20T04:41:02.317Z,66.20
2017-11-20T04:46:06.528Z,66.10
2017-11-20T04:51:09.232Z,66.10
2017-11-20T04:56:11.819Z,66.10
2017-11-20T05:01:14.389Z,66.10
2017-11-20T05:06:18.555Z,66.20
2017-11-20T05:11:21.209Z,66.10
2017-11-20T05:16:23.808Z,66.10
2017-11-20T05:21:26.380Z,66.10
2017-11-20T05:26:29.028Z,66.20
2017-11-20T05:31:31.615Z,66.10
2017-11-20T05:36:34.267Z,66.10
2017-11-20T05:41:36.876Z,66.00
2017-11-20T05:46:39.452Z,66.00
2017-11-20T05:51:42.760Z,66.00
2017-11-20T05:56:45.357Z,66.00
2017-11-20T06:01:47.980Z,66.10
2017-11-20T06:06:51.360Z,66.10
2017-11-20T06:11:54.157Z,66.00
2017-11-20T06:16:56.856Z,66.00
2017-11-20T06:21:59.482Z,65.90
2017-11-20T06:27:02.071Z,66.00
2017-11-20T06:32:04.661Z,65.90
2017-11-20T06:37:08.315Z,66.00
2017-11-20T06:42:10.966Z,65.90
2017-11-20T06:47:13.592Z,65.90
2017-11-20T06:52:16.301Z,66.00
2017-11-20T06:57:19.711Z,65.90
2017-11-20T07:02:22.383Z,65.90
2017-11-20T07:07:24.975Z,66.00
2017-11-20T07:12:27.540Z,65.90
2017-11-20T07:17:30.181Z,65.90
2017-11-20T07:22:33.606Z,65.90
2017-11-20T07:28:03.030Z,65.90
2017-11-20T07:33:05.732Z,65.80
2017-11-20T07:38:18.183Z,65.70
2017-11-20T07:43:20.824Z,65.60
2017-11-20T07:48:23.456Z,65.60
2017-11-20T07:53:26.086Z,65.50
2017-11-20T07:58:28.659Z,65.50
2017-11-20T08:03:31.339Z,65.60
2017-11-20T08:08:33.936Z,65.50
2017-11-20T08:13:37.411Z,65.60
2017-11-20T08:18:39.996Z,65.60
2017-11-20T08:23:42.628Z,65.30
2017-11-20T08:28:46.040Z,65.30
2017-11-20T08:33:48.678Z,65.20
2017-11-20T08:38:51.507Z,65.30
2017-11-20T08:43:54.125Z,65.30
2017-11-20T08:48:56.766Z,65.10
2017-11-20T08:53:59.450Z,65.20
2017-11-20T08:59:02.064Z,65.20
2017-11-20T09:04:04.688Z,65.10
2017-11-20T09:09:07.251Z,65.10
2017-11-20T09:14:09.852Z,65.10
2017-11-20T09:19:12.441Z,65.00
2017-11-20T09:24:15.950Z,64.70
2017-11-20T09:29:18.567Z,63.40
2017-11-20T09:34:21.181Z,62.30
2017-11-20T09:39:23.780Z,61.80
2017-11-20T09:44:26.405Z,61.50
2017-11-20T09:49:29.023Z,61.20
2017-11-20T09:54:31.608Z,61.20
2017-11-20T09:59:34.205Z,61.10
2017-11-20T10:04:37.028Z,60.80
2017-11-20T10:09:40.112Z,60.50
2017-11-20T10:14:42.802Z,60.50
2017-11-20T10:19:45.496Z,60.10
2017-11-20T10:24:48.095Z,60.30
2017-11-20T10:29:52.068Z,60.00
2017-11-20T10:34:54.696Z,59.90
2017-11-20T10:39:57.390Z,59.80
2017-11-20T10:45:00.119Z,59.70
2017-11-20T10:50:02.721Z,60.50
2017-11-20T10:55:05.336Z,59.90
2017-11-20T11:00:08.663Z,59.70
2017-11-20T11:05:11.296Z,59.70
2017-11-20T11:10:13.996Z,59.70
2017-11-20T11:15:16.618Z,59.70
2017-11-20T11:20:19.264Z,59.90
2017-11-20T11:25:21.860Z,61.70
2017-11-20T11:30:24.454Z,64.20
2017-11-20T11:35:27.149Z,64.00
2017-11-20T11:40:29.721Z,57.30
2017-11-20T11:45:32.311Z,54.40
2017-11-20T11:50:34.960Z,57.40
2017-11-20T11:55:38.373Z,57.10
2017-11-20T12:00:41.009Z,57.10
2017-11-20T12:05:43.693Z,57.20
2017-11-20T12:10:46.308Z,57.40
2017-11-20T12:15:48.933Z,57.60
2017-11-20T12:20:51.506Z,57.90
2017-11-20T12:25:54.205Z,58.10
2017-11-20T12:30:56.800Z,58.20
2017-11-20T12:35:59.425Z,58.50
2017-11-20T12:41:02.090Z,58.50
2017-11-20T12:46:04.690Z,58.70
2017-11-20T12:51:07.933Z,58.60
2017-11-20T12:56:10.515Z,59.10
2017-11-20T13:01:13.156Z,58.50
2017-11-20T13:06:15.828Z,58.50
2017-11-20T13:11:19.228Z,58.70
2017-11-20T13:16:22.606Z,58.80
2017-11-20T13:21:25.335Z,58.70
2017-11-20T13:26:28.831Z,58.90
2017-11-20T13:31:31.475Z,58.80
2017-11-20T13:36:35.099Z,58.90
2017-11-20T13:41:38.605Z,58.90
2017-11-20T13:46:41.224Z,58.80
2017-11-20T13:51:44.397Z,58.90
2017-11-20T13:56:47.043Z,58.80
2017-11-20T14:01:49.742Z,58.80
2017-11-20T14:06:52.484Z,58.70
2017-11-20T14:11:55.176Z,58.70
2017-11-20T14:17:02.228Z,58.70
2017-11-20T14:22:05.796Z,58.70
2017-11-20T14:27:08.413Z,58.60
2017-11-20T14:32:11.035Z,59.10
2017-11-20T14:37:13.839Z,58.50
2017-11-20T14:42:16.469Z,58.40
2017-11-20T14:47:19.862Z,58.50
2017-11-20T14:52:22.715Z,58.40
2017-11-20T14:57:25.452Z,58.30
2017-11-20T15:02:28.033Z,58.20
2017-11-20T15:07:30.704Z,58.20
2017-11-20T15:12:33.355Z,58.20
2017-11-20T15:17:36.121Z,58.10
2017-11-20T15:22:38.752Z,58.00
2017-11-20T15:27:41.640Z,58.00
2017-11-20T15:32:45.951Z,58.00
2017-11-20T15:37:51.472Z,58.10
2017-11-20T15:42:55.611Z,57.90
2017-11-20T15:48:02.853Z,57.80
2017-11-20T15:53:06.758Z,57.70
2017-11-20T15:58:10.166Z,57.60
2017-11-20T16:03:12.786Z,57.50
2017-11-20T16:08:15.461Z,57.50
2017-11-20T16:13:18.866Z,57.50
2017-11-20T16:18:22.413Z,57.50
2017-11-20T16:23:25.101Z,57.40
2017-11-20T16:28:27.997Z,57.70
2017-11-20T16:33:30.735Z,58.20
2017-11-20T16:38:33.309Z,58.50
2017-11-20T16:43:35.899Z,58.70
2017-11-20T16:48:39.038Z,58.90
2017-11-20T16:53:42.522Z,59.30
2017-11-20T16:58:48.806Z,59.30
2017-11-20T17:03:51.501Z,59.60
2017-11-20T17:08:54.103Z,59.70
2017-11-20T17:13:56.795Z,59.80
2017-11-20T17:18:59.387Z,60.00
2017-11-20T17:24:02.791Z,60.30
2017-11-20T17:29:06.171Z,60.40
2017-11-20T17:34:08.886Z,60.40
2017-11-20T17:39:12.250Z,61.40
2017-11-20T17:44:14.849Z,61.10
2017-11-20T17:49:17.612Z,61.40
2017-11-20T17:54:20.266Z,61.70
2017-11-20T17:59:23.207Z,61.90
2017-11-20T18:04:26.043Z,62.00
2017-11-20T18:09:28.679Z,62.30
2017-11-20T18:14:31.252Z,62.50
2017-11-20T18:19:33.860Z,62.70
2017-11-20T18:24:36.436Z,62.80
2017-11-20T18:29:39.735Z,62.90
2017-11-20T18:34:42.485Z,63.80
2017-11-20T18:39:45.078Z,63.20
2017-11-20T18:44:47.668Z,63.40
2017-11-20T18:49:51.023Z,63.50
2017-11-20T18:54:53.950Z,63.60
2017-11-20T19:00:08.336Z,64.40
2017-11-20T19:05:22.614Z,63.80
2017-11-20T19:10:26.377Z,63.90
2017-11-20T19:15:29.029Z,63.90
2017-11-20T19:20:31.873Z,64.00
2017-11-20T19:25:35.268Z,64.00
2017-11-20T19:30:37.926Z,64.00
2017-11-20T19:35:40.576Z,64.10
2017-11-20T19:40:43.286Z,64.10
2017-11-20T19:45:45.893Z,64.20
2017-11-20T19:50:48.524Z,64.10
2017-11-20T19:55:51.160Z,64.20
2017-11-20T20:00:55.795Z,64.20
2017-11-20T20:05:58.749Z,64.10
2017-11-20T20:11:01.480Z,64.20
2017-11-20T20:21:41.989Z,64.30
2017-11-20T20:26:44.569Z,64.40
2017-11-20T20:31:47.231Z,64.30
2017-11-20T20:36:49.907Z,64.40
2017-11-20T20:41:52.526Z,64.50
2017-11-20T20:46:55.449Z,64.60
2017-11-20T20:51:59.175Z,64.30
2017-11-20T20:57:02.132Z,63.90
2017-11-20T21:02:05.480Z,63.30
2017-11-20T21:07:08.279Z,63.30
2017-11-20T21:12:16.506Z,63.10
2017-11-20T21:17:19.390Z,63.40
2017-11-20T21:22:23.890Z,63.80
2017-11-20T21:27:26.513Z,64.20
2017-11-20T21:32:29.552Z,64.40
2017-11-20T21:37:32.169Z,64.70
2017-11-20T21:42:34.789Z,65.20
2017-11-20T21:47:37.828Z,65.50
2017-11-20T21:52:40.928Z,65.70
2017-11-20T21:57:44.287Z,66.30
2017-11-20T22:02:47.173Z,66.30
2017-11-20T22:07:49.748Z,66.60
2017-11-20T22:13:05.038Z,67.00
2017-11-20T22:18:09.068Z,66.80
2017-11-20T22:23:12.382Z,67.20
2017-11-20T22:28:15.144Z,67.20
2017-11-20T22:33:17.751Z,67.10
2017-11-20T22:38:20.452Z,67.40
2017-11-20T22:43:24.321Z,67.60
2017-11-20T22:48:27.509Z,67.60
2017-11-20T22:53:30.148Z,67.70
2017-11-20T22:58:32.806Z,67.10
2017-11-20T23:03:35.551Z,66.80
2017-11-20T23:08:38.184Z,65.70
2017-11-20T23:13:41.525Z,64.90
2017-11-20T23:18:44.320Z,64.90
2017-11-20T23:23:46.950Z,64.80
2017-11-20T23:28:49.560Z,65.00
2017-11-20T23:33:52.483Z,65.30
2017-11-20T23:38:55.095Z,65.70
2017-11-20T23:43:58.492Z,66.00
2017-11-20T23:49:01.153Z,66.00
2017-11-20T23:54:04.440Z,66.30
2017-11-20T23:59:07.255Z,66.40
